Goliath — WDD5869 — position and weather

sailwx.info

Track history (hours):
 
Tides and Currents Weather Stations Pressure Air Temp Water Temp Dewpoint Dewpoint Depression Visibility Wind Speed Wind Dir Waves Ship Positions

Goliath

Owner: Seabulk Towing Services,Inc., Groves, TX. More information available from US FCC via Universal Licensing System and Coast Guard Vessel Documentation Center.

Last reported at 2018-Jun-21 10:00 UTC. Time now 2018-Jun-21 09:59 UTC.
Position N 30°13' W 093°15'.

Length 32 m; draft 14.8 m.

Type: Tug. MMSI: 366268061.

Date/timePositionNaut miles runAvg speedWind from/ knotsBaromVisibWave heightAir tempDewpointWater temp
2018-Jun-21 10:00N 30°13' W 093°15'0 0.0
2018-Jun-21 09:30N 30°13' W 093°15'0 0.0
2018-Jun-21 09:00N 30°13' W 093°15'0 0.0
2018-Jun-21 08:27N 30°13' W 093°15'0 0.0
2018-Jun-21 08:00N 30°13' W 093°15'0 0.0
2018-Jun-21 07:30N 30°13' W 093°15'0 0.0
2018-Jun-21 07:00N 30°13' W 093°15'0 0.0
2018-Jun-21 06:30N 30°13' W 093°15'0 0.0
2018-Jun-21 06:00N 30°13' W 093°15'0 0.0
2018-Jun-21 05:30N 30°13' W 093°15'0 0.0
2018-Jun-21 05:00N 30°13' W 093°15'0 0.0
2018-Jun-21 04:29N 30°13' W 093°15'0 0.0
2018-Jun-21 03:59N 30°13' W 093°15'0 0.0
2018-Jun-21 03:29N 30°13' W 093°15'0 0.0
2018-Jun-21 02:59N 30°13' W 093°15'0 0.0
2018-Jun-21 02:29N 30°13' W 093°15'0 0.0
2018-Jun-21 01:59N 30°13' W 093°15'0 0.0
2018-Jun-21 01:29N 30°13' W 093°15'3 6.3
2018-Jun-21 01:01N 30°11' W 093°18'4 7.3
2018-Jun-21 00:30N 30°08' W 093°20'2 4.3
2018-Jun-21 00:00N 30°06' W 093°19'2 3.0
2018-Jun-20 23:28N 30°07' W 093°17'0 0.7
2018-Jun-20 23:00N 30°07' W 093°18'0 0.2
2018-Jun-20 22:30N 30°06' W 093°18'1 2.6
2018-Jun-20 22:00N 30°06' W 093°19'3 6.5
2018-Jun-20 21:30N 30°09' W 093°20'4 7.4
2018-Jun-20 21:01N 30°12' W 093°17'2 0.2
2018-Jun-20 09:31N 30°13' W 093°15'0 0.0
2018-Jun-20 03:31N 30°13' W 093°15'0 0.0
2018-Jun-20 03:19N 30°13' W 093°15'0 0.0
2018-Jun-20 02:43N 30°13' W 093°15'0 0.0
2018-Jun-20 01:13N 30°13' W 093°15'1 3.0
2018-Jun-20 01:00N 30°14' W 093°15'0 0.1
2018-Jun-20 00:30N 30°14' W 093°15'1 2.2
2018-Jun-20 00:00N 30°13' W 093°16'2 4.7
2018-Jun-19 23:29N 30°11' W 093°18'0 0.0
2018-Jun-19 22:56N 30°11' W 093°18'0 0.0
2018-Jun-19 22:29N 30°11' W 093°18'0 0.0
2018-Jun-19 21:59N 30°11' W 093°18'0 0.0
2018-Jun-19 21:30N 30°11' W 093°18'3 0.8
2018-Jun-19 18:09N 30°13' W 093°15'1 5.4
2018-Jun-19 18:00N 30°12' W 093°16'4 7.2
2018-Jun-19 17:30N 30°10' W 093°19'1 2.5
2018-Jun-19 17:00N 30°11' W 093°18'3 5.6
2018-Jun-19 16:30N 30°13' W 093°16'0 1.0
2018-Jun-19 16:00N 30°13' W 093°16'0 0.2
2018-Jun-19 15:30N 30°13' W 093°16'0 0.0
2018-Jun-19 15:00N 30°13' W 093°16'0 0.8
2018-Jun-19 14:26N 30°13' W 093°15'0 0.0
2018-Jun-19 13:59N 30°13' W 093°15'0 0.0
2018-Jun-19 13:29N 30°13' W 093°15'0 0.0
2018-Jun-19 12:59N 30°13' W 093°15'0 0.0
2018-Jun-19 12:29N 30°13' W 093°15'0 0.0
2018-Jun-19 11:59N 30°13' W 093°15'0 0.0
2018-Jun-19 11:29N 30°13' W 093°15'0 0.0
2018-Jun-19 11:00N 30°13' W 093°15'0 0.0
2018-Jun-19 10:27N 30°13' W 093°15'0 0.0
2018-Jun-19 10:00N 30°13' W 093°15'0 0.0
2018-Jun-19 09:30N 30°13' W 093°15'0 0.0
2018-Jun-19 09:00N 30°13' W 093°15'0 0.0
2018-Jun-19 08:30N 30°13' W 093°15'0 0.0
2018-Jun-19 08:00N 30°13' W 093°15'0 0.0
2018-Jun-19 07:27N 30°13' W 093°15'0 0.0
2018-Jun-19 07:00N 30°13' W 093°15'0 0.0
2018-Jun-19 06:30N 30°13' W 093°15'0 0.0
2018-Jun-19 06:00N 30°13' W 093°15'0 0.0
2018-Jun-19 05:30N 30°13' W 093°15'0 0.0
2018-Jun-19 05:00N 30°13' W 093°15'0 0.0
2018-Jun-19 04:30N 30°13' W 093°15'0 0.0
2018-Jun-19 03:57N 30°13' W 093°15'0 0.0
2018-Jun-19 03:30N 30°13' W 093°15'0 0.0
2018-Jun-19 02:57N 30°13' W 093°15'0 0.0
2018-Jun-19 02:30N 30°13' W 093°15'0 0.0
2018-Jun-19 01:57N 30°13' W 093°15'0 0.0
2018-Jun-19 01:30N 30°13' W 093°15'0 0.0
2018-Jun-19 01:00N 30°13' W 093°15'0 0.0
2018-Jun-19 00:24N 30°13' W 093°15'0 0.0
2018-Jun-19 00:00N 30°13' W 093°15'0 0.0
2018-Jun-18 23:30N 30°13' W 093°15'0 0.0
2018-Jun-18 23:00N 30°13' W 093°15'0 0.0
2018-Jun-18 22:30N 30°13' W 093°15'0 0.0
2018-Jun-18 22:00N 30°13' W 093°15'0 0.0
2018-Jun-18 21:30N 30°13' W 093°15'0 0.0
2018-Jun-18 21:00N 30°13' W 093°15'0 0.0
2018-Jun-18 20:30N 30°13' W 093°15'0 0.0
2018-Jun-18 20:00N 30°13' W 093°15'0 0.0
2018-Jun-18 19:30N 30°13' W 093°15'0 0.0
2018-Jun-18 19:00N 30°13' W 093°15'0 0.0
2018-Jun-18 18:30N 30°13' W 093°15'0 0.0
2018-Jun-18 18:00N 30°13' W 093°15'0 0.0
2018-Jun-18 17:30N 30°13' W 093°15'0 0.0
2018-Jun-18 17:00N 30°13' W 093°15'0 0.0
2018-Jun-18 16:30N 30°13' W 093°15'0 0.0
2018-Jun-18 16:00N 30°13' W 093°15'0 0.0
2018-Jun-18 15:27N 30°13' W 093°15'0 0.0
2018-Jun-18 14:54N 30°13' W 093°15'0 0.0
2018-Jun-18 14:30N 30°13' W 093°15'0 0.0
2018-Jun-18 14:00N 30°13' W 093°15'0 0.0
2018-Jun-18 13:30N 30°13' W 093°15'0 0.0
2018-Jun-18 13:00N 30°13' W 093°15'0 0.0
2018-Jun-18 12:30N 30°13' W 093°15'0 0.0
2018-Jun-18 12:00N 30°13' W 093°15'0 0.0
2018-Jun-18 11:23N 30°13' W 093°15'0 0.0
2018-Jun-18 10:56N 30°13' W 093°15'0 0.0
2018-Jun-18 10:29N 30°13' W 093°15'0 0.0
2018-Jun-18 09:59N 30°13' W 093°15'0 0.0
2018-Jun-18 09:29N 30°13' W 093°15'0 0.0
2018-Jun-18 08:59N 30°13' W 093°15'0 0.0
2018-Jun-18 08:29N 30°13' W 093°15'0 0.0
2018-Jun-18 07:59N 30°13' W 093°15'0 0.0
2018-Jun-18 07:29N 30°13' W 093°15'0 0.0
2018-Jun-18 06:59N 30°13' W 093°15'0 0.0
2018-Jun-18 06:20N 30°13' W 093°15'0 0.0
2018-Jun-18 05:59N 30°13' W 093°15'0 0.0
2018-Jun-18 05:29N 30°13' W 093°15'0 0.0
2018-Jun-18 04:59N 30°13' W 093°15'0 0.0
2018-Jun-18 04:29N 30°13' W 093°15'0 0.0
2018-Jun-18 03:59N 30°13' W 093°15'0 0.0
2018-Jun-18 03:29N 30°13' W 093°15'0 0.0
2018-Jun-18 02:59N 30°13' W 093°15'0 0.0
2018-Jun-18 02:29N 30°13' W 093°15'0 0.0
2018-Jun-18 01:59N 30°13' W 093°15'0 0.0
2018-Jun-18 01:29N 30°13' W 093°15'0 0.0
2018-Jun-18 00:59N 30°13' W 093°15'0 0.0
2018-Jun-18 00:29N 30°13' W 093°15'0 0.0
2018-Jun-17 23:59N 30°13' W 093°15'0 0.0
2018-Jun-17 23:26N 30°13' W 093°15'0 0.0
2018-Jun-17 22:59N 30°13' W 093°15'0 0.0
2018-Jun-17 22:29N 30°13' W 093°15'0 0.0
2018-Jun-17 21:59N 30°13' W 093°15'0 0.0
2018-Jun-17 21:29N 30°13' W 093°15'0 0.0
2018-Jun-17 20:59N 30°13' W 093°15'0 0.0
2018-Jun-17 20:29N 30°13' W 093°15'0 0.0
2018-Jun-17 19:59N 30°13' W 093°15'0 0.0
2018-Jun-17 19:29N 30°13' W 093°15'0 0.0
2018-Jun-17 18:59N 30°13' W 093°15'0 0.0
2018-Jun-17 18:29N 30°13' W 093°15'0 0.0
2018-Jun-17 17:56N 30°13' W 093°15'0 0.0
2018-Jun-17 17:29N 30°13' W 093°15'0 0.0
2018-Jun-17 16:59N 30°13' W 093°15'0 0.0
2018-Jun-17 16:29N 30°13' W 093°15'0 0.8
2018-Jun-17 16:00N 30°13' W 093°15'1 2.4
2018-Jun-17 15:30N 30°13' W 093°17'1 1.6
2018-Jun-17 15:00N 30°13' W 093°17'1 2.6
2018-Jun-17 14:30N 30°13' W 093°15'0 0.0
2018-Jun-17 14:00N 30°13' W 093°15'0 0.0
2018-Jun-17 13:30N 30°13' W 093°15'0 0.0
2018-Jun-17 13:00N 30°13' W 093°15'0 0.0
2018-Jun-17 12:30N 30°13' W 093°15'0 0.0
2018-Jun-17 12:00N 30°13' W 093°15'0 0.0
2018-Jun-17 11:30N 30°13' W 093°15'0 0.0
2018-Jun-17 10:57N 30°13' W 093°15'0 0.0
2018-Jun-17 10:30N 30°13' W 093°15'0 0.0
2018-Jun-17 10:00N 30°13' W 093°15'0 0.0
2018-Jun-17 09:30N 30°13' W 093°15'0 0.0
2018-Jun-17 09:00N 30°13' W 093°15'0 0.0
2018-Jun-17 08:30N 30°13' W 093°15'0 0.0
2018-Jun-17 08:00N 30°13' W 093°15'0 0.0
2018-Jun-17 07:30N 30°13' W 093°15'0 0.0
2018-Jun-17 07:00N 30°13' W 093°15'0 0.0
2018-Jun-17 06:30N 30°13' W 093°15'0 0.0
2018-Jun-17 06:00N 30°13' W 093°15'0 0.0
2018-Jun-17 05:27N 30°13' W 093°15'0 0.0
2018-Jun-17 05:00N 30°13' W 093°15'0 0.0
2018-Jun-17 04:30N 30°13' W 093°15'0 0.0
2018-Jun-17 03:57N 30°13' W 093°15'0 0.0
2018-Jun-17 03:30N 30°13' W 093°15'0 0.0
2018-Jun-17 02:57N 30°13' W 093°15'0 0.0
2018-Jun-17 02:30N 30°13' W 093°15'0 0.0
2018-Jun-17 02:00N 30°13' W 093°15'0 0.0
2018-Jun-17 01:30N 30°13' W 093°15'0 0.0
2018-Jun-17 01:00N 30°13' W 093°15'0 0.0
2018-Jun-17 00:30N 30°13' W 093°15'0 0.0
2018-Jun-17 00:00N 30°13' W 093°15'0 0.0
2018-Jun-16 23:30N 30°13' W 093°15'0 0.0
2018-Jun-16 23:00N 30°13' W 093°15'0 0.0
2018-Jun-16 22:27N 30°13' W 093°15'0 0.0
2018-Jun-16 22:00N 30°13' W 093°15'0 0.0
2018-Jun-16 21:30N 30°13' W 093°15'0 0.0
2018-Jun-16 21:00N 30°13' W 093°15'0 0.0
2018-Jun-16 20:30N 30°13' W 093°15'0 0.0
2018-Jun-16 20:00N 30°13' W 093°15'0 0.0
2018-Jun-16 19:30N 30°13' W 093°15'0 0.0
2018-Jun-16 19:00N 30°13' W 093°15'0 0.0
2018-Jun-16 18:30N 30°13' W 093°15'0 0.0
2018-Jun-16 18:00N 30°13' W 093°15'0 0.0
2018-Jun-16 17:30N 30°13' W 093°15'0 0.0
2018-Jun-16 17:00N 30°13' W 093°15'0 0.0
2018-Jun-16 16:29N 30°13' W 093°15'0 0.0
2018-Jun-16 15:59N 30°13' W 093°15'0 0.0
2018-Jun-16 15:29N 30°13' W 093°15'0 0.0
2018-Jun-16 14:59N 30°13' W 093°15'0 0.0
2018-Jun-16 14:29N 30°13' W 093°15'0 0.0
2018-Jun-16 13:59N 30°13' W 093°15'0 0.0
2018-Jun-16 13:26N 30°13' W 093°15'0 0.0
2018-Jun-16 12:59N 30°13' W 093°15'0 0.0
2018-Jun-16 12:29N 30°13' W 093°15'0 0.0
2018-Jun-16 11:59N 30°13' W 093°15'0 0.0
2018-Jun-16 11:29N 30°13' W 093°15'0 0.0
2018-Jun-16 10:59N 30°13' W 093°15'0 0.0
2018-Jun-16 10:29N 30°13' W 093°15'0 0.0
2018-Jun-16 09:59N 30°13' W 093°15'0 0.0
2018-Jun-16 09:26N 30°13' W 093°15'0 0.0
2018-Jun-16 08:59N 30°13' W 093°15'0 0.0
2018-Jun-16 08:29N 30°13' W 093°15'0 0.0
2018-Jun-16 07:59N 30°13' W 093°15'0 0.0
2018-Jun-16 07:29N 30°13' W 093°15'0 0.0
2018-Jun-16 06:56N 30°13' W 093°15'0 0.0
2018-Jun-16 06:29N 30°13' W 093°15'0 0.0
2018-Jun-16 05:59N 30°13' W 093°15'0 0.0
2018-Jun-16 05:29N 30°13' W 093°15'0 0.0
2018-Jun-16 04:59N 30°13' W 093°15'0 0.0
2018-Jun-16 04:29N 30°13' W 093°15'0 0.0
2018-Jun-16 03:59N 30°13' W 093°15'0 0.0
2018-Jun-16 03:29N 30°13' W 093°15'0 0.0
2018-Jun-16 02:59N 30°13' W 093°15'0 0.0
2018-Jun-16 02:29N 30°13' W 093°15'0 0.0
2018-Jun-16 01:59N 30°13' W 093°15'0 0.0
2018-Jun-16 01:29N 30°13' W 093°15'0 0.0
2018-Jun-16 00:59N 30°13' W 093°15'0 0.0
2018-Jun-16 00:29N 30°13' W 093°15'0 0.0
2018-Jun-15 23:59N 30°13' W 093°15'0 0.0
2018-Jun-15 23:29N 30°13' W 093°15'0 0.0
2018-Jun-15 22:59N 30°13' W 093°15'0 0.0
2018-Jun-15 22:29N 30°13' W 093°15'0 0.0
2018-Jun-15 21:53N 30°13' W 093°15'0 0.0
2018-Jun-15 21:26N 30°13' W 093°15'0 0.0
2018-Jun-15 20:59N 30°13' W 093°15'0 0.0
2018-Jun-15 20:29N 30°13' W 093°15'0 0.0
2018-Jun-15 19:50N 30°13' W 093°15'0 0.0
2018-Jun-15 19:29N 30°13' W 093°15'0 0.0
2018-Jun-15 18:59N 30°13' W 093°15'0 0.0
2018-Jun-15 18:29N 30°13' W 093°15'0 0.0
2018-Jun-15 17:59N 30°13' W 093°15'0 0.0
2018-Jun-15 17:29N 30°13' W 093°15'0 0.0
2018-Jun-15 16:59N 30°13' W 093°15'0 0.0
2018-Jun-15 16:29N 30°13' W 093°15'0 0.0
2018-Jun-15 15:56N 30°13' W 093°15'0 0.0
2018-Jun-15 15:29N 30°13' W 093°15'0 0.0
2018-Jun-15 14:59N 30°13' W 093°15'0 0.0
2018-Jun-15 14:29N 30°13' W 093°15'0 0.0
2018-Jun-15 13:59N 30°13' W 093°15'0 0.0
2018-Jun-15 13:29N 30°13' W 093°15'0 0.0
2018-Jun-15 12:59N 30°13' W 093°15'0 0.0
2018-Jun-15 12:29N 30°13' W 093°15'0 0.0
2018-Jun-15 11:59N 30°13' W 093°15'0 0.0
2018-Jun-15 11:29N 30°13' W 093°15'0 0.0
2018-Jun-15 10:59N 30°13' W 093°15'0 0.0
2018-Jun-15 10:29N 30°13' W 093°15'0 0.0
2018-Jun-15 09:59N 30°13' W 093°15'0 0.0
2018-Jun-15 09:29N 30°13' W 093°15'0 0.0
2018-Jun-15 08:59N 30°13' W 093°15'0 0.0
2018-Jun-15 08:29N 30°13' W 093°15'0 0.0
2018-Jun-15 07:59N 30°13' W 093°15'0 0.0
2018-Jun-15 07:29N 30°13' W 093°15'0 0.0
2018-Jun-15 06:59N 30°13' W 093°15'0 0.0
2018-Jun-15 06:23N 30°13' W 093°15'0 0.0
2018-Jun-15 05:59N 30°13' W 093°15'0 0.0
2018-Jun-15 05:29N 30°13' W 093°15'0 0.0
2018-Jun-15 04:59N 30°13' W 093°15'0 0.0
2018-Jun-15 04:29N 30°13' W 093°15'0 0.0
2018-Jun-15 03:59N 30°13' W 093°15'0 0.0
2018-Jun-15 03:28N 30°13' W 093°15'0 0.0
2018-Jun-15 02:58N 30°13' W 093°15'0 0.0
2018-Jun-15 02:28N 30°13' W 093°15'0 0.0
2018-Jun-15 01:58N 30°13' W 093°15'0 0.0
2018-Jun-15 01:28N 30°13' W 093°15'0 0.0
2018-Jun-15 00:58N 30°13' W 093°15'0 0.0
2018-Jun-15 00:28N 30°13' W 093°15'0 0.0
2018-Jun-14 23:55N 30°13' W 093°15'0 0.0
2018-Jun-14 23:28N 30°13' W 093°15'0 0.0
2018-Jun-14 22:58N 30°13' W 093°15'0 0.0
2018-Jun-14 22:28N 30°13' W 093°15'0 0.0
2018-Jun-14 21:58N 30°13' W 093°15'0 0.0
2018-Jun-14 21:28N 30°13' W 093°15'0 0.0
2018-Jun-14 20:58N 30°13' W 093°15'0 0.0
2018-Jun-14 20:28N 30°13' W 093°15'0 0.0
2018-Jun-14 19:58N 30°13' W 093°15'0 0.0
2018-Jun-14 19:28N 30°13' W 093°15'0 0.0
2018-Jun-14 18:58N 30°13' W 093°15'0 0.0
2018-Jun-14 18:28N 30°13' W 093°15'0 0.0
2018-Jun-14 17:58N 30°13' W 093°15'0 0.0
2018-Jun-14 17:28N 30°13' W 093°15'0 0.0
2018-Jun-14 16:58N 30°13' W 093°15'0 0.0
2018-Jun-14 16:28N 30°13' W 093°15'0 0.0
2018-Jun-14 15:58N 30°13' W 093°15'0 0.0
2018-Jun-14 15:28N 30°13' W 093°15'0 0.0
2018-Jun-14 14:58N 30°13' W 093°15'0 0.0
2018-Jun-14 14:28N 30°13' W 093°15'0 0.0
2018-Jun-14 13:58N 30°13' W 093°15'0 0.0
2018-Jun-14 13:28N 30°13' W 093°15'0 0.0
2018-Jun-14 12:58N 30°13' W 093°15'0 0.0
2018-Jun-14 12:28N 30°13' W 093°15'0 0.0
2018-Jun-14 11:58N 30°13' W 093°15'0 0.0
2018-Jun-14 11:28N 30°13' W 093°15'0 0.0
2018-Jun-14 10:58N 30°13' W 093°15'0 0.0
2018-Jun-14 10:22N 30°13' W 093°15'0 0.0
2018-Jun-14 09:58N 30°13' W 093°15'0 0.0
2018-Jun-14 09:28N 30°13' W 093°15'0 0.0
2018-Jun-14 08:58N 30°13' W 093°15'0 0.0
2018-Jun-14 08:28N 30°13' W 093°15'0 0.0
2018-Jun-14 07:55N 30°13' W 093°15'0 0.0
2018-Jun-14 07:28N 30°13' W 093°15'0 0.0
2018-Jun-14 06:58N 30°13' W 093°15'0 0.0
2018-Jun-14 06:28N 30°13' W 093°15'0 0.0
2018-Jun-14 05:58N 30°13' W 093°15'0 0.0
2018-Jun-14 05:28N 30°13' W 093°15'0 0.0
2018-Jun-14 04:58N 30°13' W 093°15'0 0.0
2018-Jun-14 04:28N 30°13' W 093°15'0 0.0
2018-Jun-14 03:58N 30°13' W 093°15'0 0.0
2018-Jun-14 03:28N 30°13' W 093°15'1 1.4
2018-Jun-14 02:59N 30°14' W 093°15'0 0.0
2018-Jun-14 02:26N 30°14' W 093°15'1 1.5
2018-Jun-14 02:01N 30°13' W 093°16'3 5.3
2018-Jun-14 01:30N 30°11' W 093°18'1 1.5
2018-Jun-14 01:00N 30°11' W 093°18'0 0.1
2018-Jun-14 00:27N 30°11' W 093°18'0 0.7
2018-Jun-14 00:00N 30°11' W 093°18'3 5.1
2018-Jun-13 23:30N 30°12' W 093°16'1 1.0
2018-Jun-13 22:58N 30°13' W 093°15'0 0.9
2018-Jun-13 22:30N 30°13' W 093°16'0 0.4
2018-Jun-13 21:52N 30°13' W 093°15'0 0.0
2018-Jun-13 21:28N 30°13' W 093°15'0 0.0
2018-Jun-13 20:58N 30°13' W 093°15'0 0.0
2018-Jun-13 20:28N 30°13' W 093°15'0 0.0
2018-Jun-13 19:58N 30°13' W 093°15'0 0.0
2018-Jun-13 19:25N 30°13' W 093°15'0 0.0
2018-Jun-13 18:55N 30°13' W 093°15'0 0.0
2018-Jun-13 18:25N 30°13' W 093°15'0 0.0
2018-Jun-13 18:01N 30°13' W 093°15'0 0.0
2018-Jun-13 17:31N 30°13' W 093°15'0 0.0
2018-Jun-13 16:57N 30°13' W 093°15'0 0.0
2018-Jun-13 16:30N 30°13' W 093°15'0 0.0
2018-Jun-13 15:54N 30°13' W 093°15'0 0.0
2018-Jun-13 15:06N 30°13' W 093°15'0 0.0
2018-Jun-13 15:00N 30°13' W 093°15'0 0.0
2018-Jun-13 14:30N 30°13' W 093°15'0 0.0
2018-Jun-13 13:45N 30°13' W 093°15'0 0.0
2018-Jun-13 13:30N 30°13' W 093°15'0 0.0
2018-Jun-13 11:48N 30°13' W 093°15'0 0.0
2018-Jun-13 11:27N 30°13' W 093°15'0 0.0
2018-Jun-13 11:00N 30°13' W 093°15'0 0.0
2018-Jun-13 10:30N 30°13' W 093°15'0 0.0
2018-Jun-13 10:00N 30°13' W 093°15'0 0.0
2018-Jun-13 09:30N 30°13' W 093°15'0 0.0
2018-Jun-13 09:00N 30°13' W 093°15'0 0.0
2018-Jun-13 08:30N 30°13' W 093°15'0 0.0
2018-Jun-13 08:00N 30°13' W 093°15'0 0.0
2018-Jun-13 07:30N 30°13' W 093°15'0 0.0
2018-Jun-13 06:54N 30°13' W 093°15'0 0.0
2018-Jun-13 06:30N 30°13' W 093°15'0 0.0
2018-Jun-13 06:00N 30°13' W 093°15'0 0.0
2018-Jun-13 05:30N 30°13' W 093°15'0 0.0
2018-Jun-13 05:00N 30°13' W 093°15'0 0.0
2018-Jun-13 04:30N 30°13' W 093°15'0 0.0
2018-Jun-13 03:48N 30°13' W 093°15'0 0.0
2018-Jun-13 03:30N 30°13' W 093°15'0 0.0
2018-Jun-13 03:00N 30°13' W 093°15'0 0.0
2018-Jun-13 02:30N 30°13' W 093°15'0 0.0
2018-Jun-13 01:54N 30°13' W 093°15'1 2.4
2018-Jun-13 01:30N 30°12' W 093°16'3 4.7
2018-Jun-13 00:58N 30°11' W 093°18'1 2.0
2018-Jun-13 00:31N 30°10' W 093°19'1 2.9
2018-Jun-13 00:00N 30°11' W 093°18'3 5.6
2018-Jun-12 23:30N 30°13' W 093°16'0 0.4
2018-Jun-12 23:00N 30°13' W 093°15'0 0.0
2018-Jun-12 22:30N 30°13' W 093°15'0 0.0
2018-Jun-12 21:57N 30°13' W 093°15'0 0.0
2018-Jun-12 21:30N 30°13' W 093°15'0 0.0
2018-Jun-12 21:00N 30°13' W 093°15'0 0.0
2018-Jun-12 20:30N 30°13' W 093°15'0 0.0
2018-Jun-12 20:00N 30°13' W 093°15'0 0.0
2018-Jun-12 19:30N 30°13' W 093°15'0 0.0
2018-Jun-12 19:00N 30°13' W 093°15'0 0.0
2018-Jun-12 18:30N 30°13' W 093°15'0 0.0
2018-Jun-12 17:57N 30°13' W 093°15'0 0.0
2018-Jun-12 17:30N 30°13' W 093°15'0 0.0
2018-Jun-12 17:00N 30°13' W 093°15'0 0.0
2018-Jun-12 16:30N 30°13' W 093°15'0 0.0
2018-Jun-12 16:00N 30°13' W 093°15'0 0.0
2018-Jun-12 15:30N 30°13' W 093°15'0 0.0
2018-Jun-12 15:00N 30°13' W 093°15'0 0.0
2018-Jun-12 14:27N 30°13' W 093°15'0 0.0
2018-Jun-12 14:00N 30°13' W 093°15'0 0.0
2018-Jun-12 13:30N 30°13' W 093°15'0 0.0
2018-Jun-12 13:00N 30°13' W 093°15'0 0.0
2018-Jun-12 12:30N 30°13' W 093°15'0 0.0
2018-Jun-12 12:00N 30°13' W 093°15'0 0.0
2018-Jun-12 11:30N 30°13' W 093°15'0 0.0
2018-Jun-12 11:00N 30°13' W 093°15'0 0.0
2018-Jun-12 10:30N 30°13' W 093°15'0 0.0
2018-Jun-12 09:57N 30°13' W 093°15'0 0.0
2018-Jun-12 09:30N 30°13' W 093°15'0 0.0
2018-Jun-12 09:00N 30°13' W 093°15'0 0.0
2018-Jun-12 08:30N 30°13' W 093°15'0 0.0
2018-Jun-12 08:00N 30°13' W 093°15'0 0.0
2018-Jun-12 07:30N 30°13' W 093°15'0 0.0
2018-Jun-12 07:00N 30°13' W 093°15'0 0.0
2018-Jun-12 06:30N 30°13' W 093°15'0 0.0
2018-Jun-12 06:00N 30°13' W 093°15'0 0.0
2018-Jun-12 05:30N 30°13' W 093°15'0 0.0
2018-Jun-12 05:00N 30°13' W 093°15'0 0.0
2018-Jun-12 04:30N 30°13' W 093°15'0 0.0
2018-Jun-12 03:57N 30°13' W 093°15'0 0.0
2018-Jun-12 03:30N 30°13' W 093°15'0 0.0
2018-Jun-12 03:00N 30°13' W 093°15'0 0.0
2018-Jun-12 02:30N 30°13' W 093°15'0 0.0
2018-Jun-12 02:00N 30°13' W 093°15'0 0.0
2018-Jun-12 01:27N 30°13' W 093°15'0 0.0
2018-Jun-12 01:00N 30°13' W 093°15'0 0.0
2018-Jun-12 00:27N 30°13' W 093°15'0 0.0
2018-Jun-12 00:00N 30°13' W 093°15'0 0.0
2018-Jun-11 23:30N 30°13' W 093°15'0 0.0
2018-Jun-11 22:57N 30°13' W 093°15'0 0.0
2018-Jun-11 22:30N 30°13' W 093°15'3 6.5
2018-Jun-11 22:00N 30°11' W 093°18'3 6.9
2018-Jun-11 21:31N 30°08' W 093°20'2 4.0
2018-Jun-11 21:00N 30°06' W 093°18'1 1.3
2018-Jun-11 20:28N 30°06' W 093°17'0 0.0
2018-Jun-11 19:58N 30°06' W 093°17'0 0.0
2018-Jun-11 19:28N 30°06' W 093°17'0 0.0
2018-Jun-11 18:58N 30°06' W 093°17'0 0.0
2018-Jun-11 18:28N 30°06' W 093°17'0 0.0
2018-Jun-11 17:58N 30°06' W 093°17'0 0.0
2018-Jun-11 17:28N 30°06' W 093°17'0 0.0
2018-Jun-11 16:58N 30°06' W 093°17'0 0.0
2018-Jun-11 16:28N 30°06' W 093°17'0 0.0
2018-Jun-11 15:58N 30°06' W 093°17'0 0.0
2018-Jun-11 15:28N 30°06' W 093°17'0 0.0
2018-Jun-11 14:58N 30°06' W 093°17'0 0.0
2018-Jun-11 14:28N 30°06' W 093°17'0 0.0
2018-Jun-11 13:58N 30°06' W 093°17'0 0.0
2018-Jun-11 13:28N 30°06' W 093°17'0 0.0
2018-Jun-11 13:01N 30°06' W 093°17'0 0.0
2018-Jun-11 12:28N 30°06' W 093°17'0 0.0
2018-Jun-11 12:01N 30°06' W 093°17'0 0.0
2018-Jun-11 11:31N 30°06' W 093°17'0 0.0
2018-Jun-11 11:00N 30°06' W 093°17'0 0.0
2018-Jun-11 10:30N 30°06' W 093°17'0 0.0
2018-Jun-11 10:00N 30°06' W 093°17'  
Track history (hours):
 
Tides and Currents Weather Stations Pressure Air Temp Water Temp Dewpoint Dewpoint Depression Visibility Wind Speed Wind Dir Waves Ship Positions

Goliath

Owner: Seabulk Towing Services,Inc., Groves, TX. More information available from US FCC via Universal Licensing System and Coast Guard Vessel Documentation Center.

Last reported at 2018-Jun-21 10:00 UTC. Time now 2018-Jun-21 09:59 UTC.
Position N 30°13' W 093°15'.

Length 32 m; draft 14.8 m.

Type: Tug. MMSI: 366268061.

Date/timePositionNaut miles runAvg speedWind from/ knotsBaromVisibWave heightAir tempDewpointWater temp
2018-Jun-21 10:00N 30°13' W 093°15'0 0.0
2018-Jun-21 09:30N 30°13' W 093°15'0 0.0
2018-Jun-21 09:00N 30°13' W 093°15'0 0.0
2018-Jun-21 08:27N 30°13' W 093°15'0 0.0
2018-Jun-21 08:00N 30°13' W 093°15'0 0.0
2018-Jun-21 07:30N 30°13' W 093°15'0 0.0
2018-Jun-21 07:00N 30°13' W 093°15'0 0.0
2018-Jun-21 06:30N 30°13' W 093°15'0 0.0
2018-Jun-21 06:00N 30°13' W 093°15'0 0.0
2018-Jun-21 05:30N 30°13' W 093°15'0 0.0
2018-Jun-21 05:00N 30°13' W 093°15'0 0.0
2018-Jun-21 04:29N 30°13' W 093°15'0 0.0
2018-Jun-21 03:59N 30°13' W 093°15'0 0.0
2018-Jun-21 03:29N 30°13' W 093°15'0 0.0
2018-Jun-21 02:59N 30°13' W 093°15'0 0.0
2018-Jun-21 02:29N 30°13' W 093°15'0 0.0
2018-Jun-21 01:59N 30°13' W 093°15'0 0.0
2018-Jun-21 01:29N 30°13' W 093°15'3 6.3
2018-Jun-21 01:01N 30°11' W 093°18'4 7.3
2018-Jun-21 00:30N 30°08' W 093°20'2 4.3
2018-Jun-21 00:00N 30°06' W 093°19'2 3.0
2018-Jun-20 23:28N 30°07' W 093°17'0 0.7
2018-Jun-20 23:00N 30°07' W 093°18'0 0.2
2018-Jun-20 22:30N 30°06' W 093°18'1 2.6
2018-Jun-20 22:00N 30°06' W 093°19'3 6.5
2018-Jun-20 21:30N 30°09' W 093°20'4 7.4
2018-Jun-20 21:01N 30°12' W 093°17'2 0.2
2018-Jun-20 09:31N 30°13' W 093°15'0 0.0
2018-Jun-20 03:31N 30°13' W 093°15'0 0.0
2018-Jun-20 03:19N 30°13' W 093°15'0 0.0
2018-Jun-20 02:43N 30°13' W 093°15'0 0.0
2018-Jun-20 01:13N 30°13' W 093°15'1 3.0
2018-Jun-20 01:00N 30°14' W 093°15'0 0.1
2018-Jun-20 00:30N 30°14' W 093°15'1 2.2
2018-Jun-20 00:00N 30°13' W 093°16'2 4.7
2018-Jun-19 23:29N 30°11' W 093°18'0 0.0
2018-Jun-19 22:56N 30°11' W 093°18'0 0.0
2018-Jun-19 22:29N 30°11' W 093°18'0 0.0
2018-Jun-19 21:59N 30°11' W 093°18'0 0.0
2018-Jun-19 21:30N 30°11' W 093°18'3 0.8
2018-Jun-19 18:09N 30°13' W 093°15'1 5.4
2018-Jun-19 18:00N 30°12' W 093°16'4 7.2
2018-Jun-19 17:30N 30°10' W 093°19'1 2.5
2018-Jun-19 17:00N 30°11' W 093°18'3 5.6
2018-Jun-19 16:30N 30°13' W 093°16'0 1.0
2018-Jun-19 16:00N 30°13' W 093°16'0 0.2
2018-Jun-19 15:30N 30°13' W 093°16'0 0.0
2018-Jun-19 15:00N 30°13' W 093°16'0 0.8
2018-Jun-19 14:26N 30°13' W 093°15'0 0.0
2018-Jun-19 13:59N 30°13' W 093°15'0 0.0
2018-Jun-19 13:29N 30°13' W 093°15'0 0.0
2018-Jun-19 12:59N 30°13' W 093°15'0 0.0
2018-Jun-19 12:29N 30°13' W 093°15'0 0.0
2018-Jun-19 11:59N 30°13' W 093°15'0 0.0
2018-Jun-19 11:29N 30°13' W 093°15'0 0.0
2018-Jun-19 11:00N 30°13' W 093°15'0 0.0
2018-Jun-19 10:27N 30°13' W 093°15'0 0.0
2018-Jun-19 10:00N 30°13' W 093°15'0 0.0
2018-Jun-19 09:30N 30°13' W 093°15'0 0.0
2018-Jun-19 09:00N 30°13' W 093°15'0 0.0
2018-Jun-19 08:30N 30°13' W 093°15'0 0.0
2018-Jun-19 08:00N 30°13' W 093°15'0 0.0
2018-Jun-19 07:27N 30°13' W 093°15'0 0.0
2018-Jun-19 07:00N 30°13' W 093°15'0 0.0
2018-Jun-19 06:30N 30°13' W 093°15'0 0.0
2018-Jun-19 06:00N 30°13' W 093°15'0 0.0
2018-Jun-19 05:30N 30°13' W 093°15'0 0.0
2018-Jun-19 05:00N 30°13' W 093°15'0 0.0
2018-Jun-19 04:30N 30°13' W 093°15'0 0.0
2018-Jun-19 03:57N 30°13' W 093°15'0 0.0
2018-Jun-19 03:30N 30°13' W 093°15'0 0.0
2018-Jun-19 02:57N 30°13' W 093°15'0 0.0
2018-Jun-19 02:30N 30°13' W 093°15'0 0.0
2018-Jun-19 01:57N 30°13' W 093°15'0 0.0
2018-Jun-19 01:30N 30°13' W 093°15'0 0.0
2018-Jun-19 01:00N 30°13' W 093°15'0 0.0
2018-Jun-19 00:24N 30°13' W 093°15'0 0.0
2018-Jun-19 00:00N 30°13' W 093°15'0 0.0
2018-Jun-18 23:30N 30°13' W 093°15'0 0.0
2018-Jun-18 23:00N 30°13' W 093°15'0 0.0
2018-Jun-18 22:30N 30°13' W 093°15'0 0.0
2018-Jun-18 22:00N 30°13' W 093°15'0 0.0
2018-Jun-18 21:30N 30°13' W 093°15'0 0.0
2018-Jun-18 21:00N 30°13' W 093°15'0 0.0
2018-Jun-18 20:30N 30°13' W 093°15'0 0.0
2018-Jun-18 20:00N 30°13' W 093°15'0 0.0
2018-Jun-18 19:30N 30°13' W 093°15'0 0.0
2018-Jun-18 19:00N 30°13' W 093°15'0 0.0
2018-Jun-18 18:30N 30°13' W 093°15'0 0.0
2018-Jun-18 18:00N 30°13' W 093°15'0 0.0
2018-Jun-18 17:30N 30°13' W 093°15'0 0.0
2018-Jun-18 17:00N 30°13' W 093°15'0 0.0
2018-Jun-18 16:30N 30°13' W 093°15'0 0.0
2018-Jun-18 16:00N 30°13' W 093°15'0 0.0
2018-Jun-18 15:27N 30°13' W 093°15'0 0.0
2018-Jun-18 14:54N 30°13' W 093°15'0 0.0
2018-Jun-18 14:30N 30°13' W 093°15'0 0.0
2018-Jun-18 14:00N 30°13' W 093°15'0 0.0
2018-Jun-18 13:30N 30°13' W 093°15'0 0.0
2018-Jun-18 13:00N 30°13' W 093°15'0 0.0
2018-Jun-18 12:30N 30°13' W 093°15'0 0.0
2018-Jun-18 12:00N 30°13' W 093°15'0 0.0
2018-Jun-18 11:23N 30°13' W 093°15'0 0.0
2018-Jun-18 10:56N 30°13' W 093°15'0 0.0
2018-Jun-18 10:29N 30°13' W 093°15'0 0.0
2018-Jun-18 09:59N 30°13' W 093°15'0 0.0
2018-Jun-18 09:29N 30°13' W 093°15'0 0.0
2018-Jun-18 08:59N 30°13' W 093°15'0 0.0
2018-Jun-18 08:29N 30°13' W 093°15'0 0.0
2018-Jun-18 07:59N 30°13' W 093°15'0 0.0
2018-Jun-18 07:29N 30°13' W 093°15'0 0.0
2018-Jun-18 06:59N 30°13' W 093°15'0 0.0
2018-Jun-18 06:20N 30°13' W 093°15'0 0.0
2018-Jun-18 05:59N 30°13' W 093°15'0 0.0
2018-Jun-18 05:29N 30°13' W 093°15'0 0.0
2018-Jun-18 04:59N 30°13' W 093°15'0 0.0
2018-Jun-18 04:29N 30°13' W 093°15'0 0.0
2018-Jun-18 03:59N 30°13' W 093°15'0 0.0
2018-Jun-18 03:29N 30°13' W 093°15'0 0.0
2018-Jun-18 02:59N 30°13' W 093°15'0 0.0
2018-Jun-18 02:29N 30°13' W 093°15'0 0.0
2018-Jun-18 01:59N 30°13' W 093°15'0 0.0
2018-Jun-18 01:29N 30°13' W 093°15'0 0.0
2018-Jun-18 00:59N 30°13' W 093°15'0 0.0
2018-Jun-18 00:29N 30°13' W 093°15'0 0.0
2018-Jun-17 23:59N 30°13' W 093°15'0 0.0
2018-Jun-17 23:26N 30°13' W 093°15'0 0.0
2018-Jun-17 22:59N 30°13' W 093°15'0 0.0
2018-Jun-17 22:29N 30°13' W 093°15'0 0.0
2018-Jun-17 21:59N 30°13' W 093°15'0 0.0
2018-Jun-17 21:29N 30°13' W 093°15'0 0.0
2018-Jun-17 20:59N 30°13' W 093°15'0 0.0
2018-Jun-17 20:29N 30°13' W 093°15'0 0.0
2018-Jun-17 19:59N 30°13' W 093°15'0 0.0
2018-Jun-17 19:29N 30°13' W 093°15'0 0.0
2018-Jun-17 18:59N 30°13' W 093°15'0 0.0
2018-Jun-17 18:29N 30°13' W 093°15'0 0.0
2018-Jun-17 17:56N 30°13' W 093°15'0 0.0
2018-Jun-17 17:29N 30°13' W 093°15'0 0.0
2018-Jun-17 16:59N 30°13' W 093°15'0 0.0
2018-Jun-17 16:29N 30°13' W 093°15'0 0.8
2018-Jun-17 16:00N 30°13' W 093°15'1 2.4
2018-Jun-17 15:30N 30°13' W 093°17'1 1.6
2018-Jun-17 15:00N 30°13' W 093°17'1 2.6
2018-Jun-17 14:30N 30°13' W 093°15'0 0.0
2018-Jun-17 14:00N 30°13' W 093°15'0 0.0
2018-Jun-17 13:30N 30°13' W 093°15'0 0.0
2018-Jun-17 13:00N 30°13' W 093°15'0 0.0
2018-Jun-17 12:30N 30°13' W 093°15'0 0.0
2018-Jun-17 12:00N 30°13' W 093°15'0 0.0
2018-Jun-17 11:30N 30°13' W 093°15'0 0.0
2018-Jun-17 10:57N 30°13' W 093°15'0 0.0
2018-Jun-17 10:30N 30°13' W 093°15'0 0.0
2018-Jun-17 10:00N 30°13' W 093°15'0 0.0
2018-Jun-17 09:30N 30°13' W 093°15'0 0.0
2018-Jun-17 09:00N 30°13' W 093°15'0 0.0
2018-Jun-17 08:30N 30°13' W 093°15'0 0.0
2018-Jun-17 08:00N 30°13' W 093°15'0 0.0
2018-Jun-17 07:30N 30°13' W 093°15'0 0.0
2018-Jun-17 07:00N 30°13' W 093°15'0 0.0
2018-Jun-17 06:30N 30°13' W 093°15'0 0.0
2018-Jun-17 06:00N 30°13' W 093°15'0 0.0
2018-Jun-17 05:27N 30°13' W 093°15'0 0.0
2018-Jun-17 05:00N 30°13' W 093°15'0 0.0
2018-Jun-17 04:30N 30°13' W 093°15'0 0.0
2018-Jun-17 03:57N 30°13' W 093°15'0 0.0
2018-Jun-17 03:30N 30°13' W 093°15'0 0.0
2018-Jun-17 02:57N 30°13' W 093°15'0 0.0
2018-Jun-17 02:30N 30°13' W 093°15'0 0.0
2018-Jun-17 02:00N 30°13' W 093°15'0 0.0
2018-Jun-17 01:30N 30°13' W 093°15'0 0.0
2018-Jun-17 01:00N 30°13' W 093°15'0 0.0
2018-Jun-17 00:30N 30°13' W 093°15'0 0.0
2018-Jun-17 00:00N 30°13' W 093°15'0 0.0
2018-Jun-16 23:30N 30°13' W 093°15'0 0.0
2018-Jun-16 23:00N 30°13' W 093°15'0 0.0
2018-Jun-16 22:27N 30°13' W 093°15'0 0.0
2018-Jun-16 22:00N 30°13' W 093°15'0 0.0
2018-Jun-16 21:30N 30°13' W 093°15'0 0.0
2018-Jun-16 21:00N 30°13' W 093°15'0 0.0
2018-Jun-16 20:30N 30°13' W 093°15'0 0.0
2018-Jun-16 20:00N 30°13' W 093°15'0 0.0
2018-Jun-16 19:30N 30°13' W 093°15'0 0.0
2018-Jun-16 19:00N 30°13' W 093°15'0 0.0
2018-Jun-16 18:30N 30°13' W 093°15'0 0.0
2018-Jun-16 18:00N 30°13' W 093°15'0 0.0
2018-Jun-16 17:30N 30°13' W 093°15'0 0.0
2018-Jun-16 17:00N 30°13' W 093°15'0 0.0
2018-Jun-16 16:29N 30°13' W 093°15'0 0.0
2018-Jun-16 15:59N 30°13' W 093°15'0 0.0
2018-Jun-16 15:29N 30°13' W 093°15'0 0.0
2018-Jun-16 14:59N 30°13' W 093°15'0 0.0
2018-Jun-16 14:29N 30°13' W 093°15'0 0.0
2018-Jun-16 13:59N 30°13' W 093°15'0 0.0
2018-Jun-16 13:26N 30°13' W 093°15'0 0.0
2018-Jun-16 12:59N 30°13' W 093°15'0 0.0
2018-Jun-16 12:29N 30°13' W 093°15'0 0.0
2018-Jun-16 11:59N 30°13' W 093°15'0 0.0
2018-Jun-16 11:29N 30°13' W 093°15'0 0.0
2018-Jun-16 10:59N 30°13' W 093°15'0 0.0
2018-Jun-16 10:29N 30°13' W 093°15'0 0.0
2018-Jun-16 09:59N 30°13' W 093°15'0 0.0
2018-Jun-16 09:26N 30°13' W 093°15'0 0.0
2018-Jun-16 08:59N 30°13' W 093°15'0 0.0
2018-Jun-16 08:29N 30°13' W 093°15'0 0.0
2018-Jun-16 07:59N 30°13' W 093°15'0 0.0
2018-Jun-16 07:29N 30°13' W 093°15'0 0.0
2018-Jun-16 06:56N 30°13' W 093°15'0 0.0
2018-Jun-16 06:29N 30°13' W 093°15'0 0.0
2018-Jun-16 05:59N 30°13' W 093°15'0 0.0
2018-Jun-16 05:29N 30°13' W 093°15'0 0.0
2018-Jun-16 04:59N 30°13' W 093°15'0 0.0
2018-Jun-16 04:29N 30°13' W 093°15'0 0.0
2018-Jun-16 03:59N 30°13' W 093°15'0 0.0
2018-Jun-16 03:29N 30°13' W 093°15'0 0.0
2018-Jun-16 02:59N 30°13' W 093°15'0 0.0
2018-Jun-16 02:29N 30°13' W 093°15'0 0.0
2018-Jun-16 01:59N 30°13' W 093°15'0 0.0
2018-Jun-16 01:29N 30°13' W 093°15'0 0.0
2018-Jun-16 00:59N 30°13' W 093°15'0 0.0
2018-Jun-16 00:29N 30°13' W 093°15'0 0.0
2018-Jun-15 23:59N 30°13' W 093°15'0 0.0
2018-Jun-15 23:29N 30°13' W 093°15'0 0.0
2018-Jun-15 22:59N 30°13' W 093°15'0 0.0
2018-Jun-15 22:29N 30°13' W 093°15'0 0.0
2018-Jun-15 21:53N 30°13' W 093°15'0 0.0
2018-Jun-15 21:26N 30°13' W 093°15'0 0.0
2018-Jun-15 20:59N 30°13' W 093°15'0 0.0
2018-Jun-15 20:29N 30°13' W 093°15'0 0.0
2018-Jun-15 19:50N 30°13' W 093°15'0 0.0
2018-Jun-15 19:29N 30°13' W 093°15'0 0.0
2018-Jun-15 18:59N 30°13' W 093°15'0 0.0
2018-Jun-15 18:29N 30°13' W 093°15'0 0.0
2018-Jun-15 17:59N 30°13' W 093°15'0 0.0
2018-Jun-15 17:29N 30°13' W 093°15'0 0.0
2018-Jun-15 16:59N 30°13' W 093°15'0 0.0
2018-Jun-15 16:29N 30°13' W 093°15'0 0.0
2018-Jun-15 15:56N 30°13' W 093°15'0 0.0
2018-Jun-15 15:29N 30°13' W 093°15'0 0.0
2018-Jun-15 14:59N 30°13' W 093°15'0 0.0
2018-Jun-15 14:29N 30°13' W 093°15'0 0.0
2018-Jun-15 13:59N 30°13' W 093°15'0 0.0
2018-Jun-15 13:29N 30°13' W 093°15'0 0.0
2018-Jun-15 12:59N 30°13' W 093°15'0 0.0
2018-Jun-15 12:29N 30°13' W 093°15'0 0.0
2018-Jun-15 11:59N 30°13' W 093°15'0 0.0
2018-Jun-15 11:29N 30°13' W 093°15'0 0.0
2018-Jun-15 10:59N 30°13' W 093°15'0 0.0
2018-Jun-15 10:29N 30°13' W 093°15'0 0.0
2018-Jun-15 09:59N 30°13' W 093°15'0 0.0
2018-Jun-15 09:29N 30°13' W 093°15'0 0.0
2018-Jun-15 08:59N 30°13' W 093°15'0 0.0
2018-Jun-15 08:29N 30°13' W 093°15'0 0.0
2018-Jun-15 07:59N 30°13' W 093°15'0 0.0
2018-Jun-15 07:29N 30°13' W 093°15'0 0.0
2018-Jun-15 06:59N 30°13' W 093°15'0 0.0
2018-Jun-15 06:23N 30°13' W 093°15'0 0.0
2018-Jun-15 05:59N 30°13' W 093°15'0 0.0
2018-Jun-15 05:29N 30°13' W 093°15'0 0.0
2018-Jun-15 04:59N 30°13' W 093°15'0 0.0
2018-Jun-15 04:29N 30°13' W 093°15'0 0.0
2018-Jun-15 03:59N 30°13' W 093°15'0 0.0
2018-Jun-15 03:28N 30°13' W 093°15'0 0.0
2018-Jun-15 02:58N 30°13' W 093°15'0 0.0
2018-Jun-15 02:28N 30°13' W 093°15'0 0.0
2018-Jun-15 01:58N 30°13' W 093°15'0 0.0
2018-Jun-15 01:28N 30°13' W 093°15'0 0.0
2018-Jun-15 00:58N 30°13' W 093°15'0 0.0
2018-Jun-15 00:28N 30°13' W 093°15'0 0.0
2018-Jun-14 23:55N 30°13' W 093°15'0 0.0
2018-Jun-14 23:28N 30°13' W 093°15'0 0.0
2018-Jun-14 22:58N 30°13' W 093°15'0 0.0
2018-Jun-14 22:28N 30°13' W 093°15'0 0.0
2018-Jun-14 21:58N 30°13' W 093°15'0 0.0
2018-Jun-14 21:28N 30°13' W 093°15'0 0.0
2018-Jun-14 20:58N 30°13' W 093°15'0 0.0
2018-Jun-14 20:28N 30°13' W 093°15'0 0.0
2018-Jun-14 19:58N 30°13' W 093°15'0 0.0
2018-Jun-14 19:28N 30°13' W 093°15'0 0.0
2018-Jun-14 18:58N 30°13' W 093°15'0 0.0
2018-Jun-14 18:28N 30°13' W 093°15'0 0.0
2018-Jun-14 17:58N 30°13' W 093°15'0 0.0
2018-Jun-14 17:28N 30°13' W 093°15'0 0.0
2018-Jun-14 16:58N 30°13' W 093°15'0 0.0
2018-Jun-14 16:28N 30°13' W 093°15'0 0.0
2018-Jun-14 15:58N 30°13' W 093°15'0 0.0
2018-Jun-14 15:28N 30°13' W 093°15'0 0.0
2018-Jun-14 14:58N 30°13' W 093°15'0 0.0
2018-Jun-14 14:28N 30°13' W 093°15'0 0.0
2018-Jun-14 13:58N 30°13' W 093°15'0 0.0
2018-Jun-14 13:28N 30°13' W 093°15'0 0.0
2018-Jun-14 12:58N 30°13' W 093°15'0 0.0
2018-Jun-14 12:28N 30°13' W 093°15'0 0.0
2018-Jun-14 11:58N 30°13' W 093°15'0 0.0
2018-Jun-14 11:28N 30°13' W 093°15'0 0.0
2018-Jun-14 10:58N 30°13' W 093°15'0 0.0
2018-Jun-14 10:22N 30°13' W 093°15'0 0.0
2018-Jun-14 09:58N 30°13' W 093°15'0 0.0
2018-Jun-14 09:28N 30°13' W 093°15'0 0.0
2018-Jun-14 08:58N 30°13' W 093°15'0 0.0
2018-Jun-14 08:28N 30°13' W 093°15'0 0.0
2018-Jun-14 07:55N 30°13' W 093°15'0 0.0
2018-Jun-14 07:28N 30°13' W 093°15'0 0.0
2018-Jun-14 06:58N 30°13' W 093°15'0 0.0
2018-Jun-14 06:28N 30°13' W 093°15'0 0.0
2018-Jun-14 05:58N 30°13' W 093°15'0 0.0
2018-Jun-14 05:28N 30°13' W 093°15'0 0.0
2018-Jun-14 04:58N 30°13' W 093°15'0 0.0
2018-Jun-14 04:28N 30°13' W 093°15'0 0.0
2018-Jun-14 03:58N 30°13' W 093°15'0 0.0
2018-Jun-14 03:28N 30°13' W 093°15'1 1.4
2018-Jun-14 02:59N 30°14' W 093°15'0 0.0
2018-Jun-14 02:26N 30°14' W 093°15'1 1.5
2018-Jun-14 02:01N 30°13' W 093°16'3 5.3
2018-Jun-14 01:30N 30°11' W 093°18'1 1.5
2018-Jun-14 01:00N 30°11' W 093°18'0 0.1
2018-Jun-14 00:27N 30°11' W 093°18'0 0.7
2018-Jun-14 00:00N 30°11' W 093°18'3 5.1
2018-Jun-13 23:30N 30°12' W 093°16'1 1.0
2018-Jun-13 22:58N 30°13' W 093°15'0 0.9
2018-Jun-13 22:30N 30°13' W 093°16'0 0.4
2018-Jun-13 21:52N 30°13' W 093°15'0 0.0
2018-Jun-13 21:28N 30°13' W 093°15'0 0.0
2018-Jun-13 20:58N 30°13' W 093°15'0 0.0
2018-Jun-13 20:28N 30°13' W 093°15'0 0.0
2018-Jun-13 19:58N 30°13' W 093°15'0 0.0
2018-Jun-13 19:25N 30°13' W 093°15'0 0.0
2018-Jun-13 18:55N 30°13' W 093°15'0 0.0
2018-Jun-13 18:25N 30°13' W 093°15'0 0.0
2018-Jun-13 18:01N 30°13' W 093°15'0 0.0
2018-Jun-13 17:31N 30°13' W 093°15'0 0.0
2018-Jun-13 16:57N 30°13' W 093°15'0 0.0
2018-Jun-13 16:30N 30°13' W 093°15'0 0.0
2018-Jun-13 15:54N 30°13' W 093°15'0 0.0
2018-Jun-13 15:06N 30°13' W 093°15'0 0.0
2018-Jun-13 15:00N 30°13' W 093°15'0 0.0
2018-Jun-13 14:30N 30°13' W 093°15'0 0.0
2018-Jun-13 13:45N 30°13' W 093°15'0 0.0
2018-Jun-13 13:30N 30°13' W 093°15'0 0.0
2018-Jun-13 11:48N 30°13' W 093°15'0 0.0
2018-Jun-13 11:27N 30°13' W 093°15'0 0.0
2018-Jun-13 11:00N 30°13' W 093°15'0 0.0
2018-Jun-13 10:30N 30°13' W 093°15'0 0.0
2018-Jun-13 10:00N 30°13' W 093°15'0 0.0
2018-Jun-13 09:30N 30°13' W 093°15'0 0.0
2018-Jun-13 09:00N 30°13' W 093°15'0 0.0
2018-Jun-13 08:30N 30°13' W 093°15'0 0.0
2018-Jun-13 08:00N 30°13' W 093°15'0 0.0
2018-Jun-13 07:30N 30°13' W 093°15'0 0.0
2018-Jun-13 06:54N 30°13' W 093°15'0 0.0
2018-Jun-13 06:30N 30°13' W 093°15'0 0.0
2018-Jun-13 06:00N 30°13' W 093°15'0 0.0
2018-Jun-13 05:30N 30°13' W 093°15'0 0.0
2018-Jun-13 05:00N 30°13' W 093°15'0 0.0
2018-Jun-13 04:30N 30°13' W 093°15'0 0.0
2018-Jun-13 03:48N 30°13' W 093°15'0 0.0
2018-Jun-13 03:30N 30°13' W 093°15'0 0.0
2018-Jun-13 03:00N 30°13' W 093°15'0 0.0
2018-Jun-13 02:30N 30°13' W 093°15'0 0.0
2018-Jun-13 01:54N 30°13' W 093°15'1 2.4
2018-Jun-13 01:30N 30°12' W 093°16'3 4.7
2018-Jun-13 00:58N 30°11' W 093°18'1 2.0
2018-Jun-13 00:31N 30°10' W 093°19'1 2.9
2018-Jun-13 00:00N 30°11' W 093°18'3 5.6
2018-Jun-12 23:30N 30°13' W 093°16'0 0.4
2018-Jun-12 23:00N 30°13' W 093°15'0 0.0
2018-Jun-12 22:30N 30°13' W 093°15'0 0.0
2018-Jun-12 21:57N 30°13' W 093°15'0 0.0
2018-Jun-12 21:30N 30°13' W 093°15'0 0.0
2018-Jun-12 21:00N 30°13' W 093°15'0 0.0
2018-Jun-12 20:30N 30°13' W 093°15'0 0.0
2018-Jun-12 20:00N 30°13' W 093°15'0 0.0
2018-Jun-12 19:30N 30°13' W 093°15'0 0.0
2018-Jun-12 19:00N 30°13' W 093°15'0 0.0
2018-Jun-12 18:30N 30°13' W 093°15'0 0.0
2018-Jun-12 17:57N 30°13' W 093°15'0 0.0
2018-Jun-12 17:30N 30°13' W 093°15'0 0.0
2018-Jun-12 17:00N 30°13' W 093°15'0 0.0
2018-Jun-12 16:30N 30°13' W 093°15'0 0.0
2018-Jun-12 16:00N 30°13' W 093°15'0 0.0
2018-Jun-12 15:30N 30°13' W 093°15'0 0.0
2018-Jun-12 15:00N 30°13' W 093°15'0 0.0
2018-Jun-12 14:27N 30°13' W 093°15'0 0.0
2018-Jun-12 14:00N 30°13' W 093°15'0 0.0
2018-Jun-12 13:30N 30°13' W 093°15'0 0.0
2018-Jun-12 13:00N 30°13' W 093°15'0 0.0
2018-Jun-12 12:30N 30°13' W 093°15'0 0.0
2018-Jun-12 12:00N 30°13' W 093°15'0 0.0
2018-Jun-12 11:30N 30°13' W 093°15'0 0.0
2018-Jun-12 11:00N 30°13' W 093°15'0 0.0
2018-Jun-12 10:30N 30°13' W 093°15'0 0.0
2018-Jun-12 09:57N 30°13' W 093°15'0 0.0
2018-Jun-12 09:30N 30°13' W 093°15'0 0.0
2018-Jun-12 09:00N 30°13' W 093°15'0 0.0
2018-Jun-12 08:30N 30°13' W 093°15'0 0.0
2018-Jun-12 08:00N 30°13' W 093°15'0 0.0
2018-Jun-12 07:30N 30°13' W 093°15'0 0.0
2018-Jun-12 07:00N 30°13' W 093°15'0 0.0
2018-Jun-12 06:30N 30°13' W 093°15'0 0.0
2018-Jun-12 06:00N 30°13' W 093°15'0 0.0
2018-Jun-12 05:30N 30°13' W 093°15'0 0.0
2018-Jun-12 05:00N 30°13' W 093°15'0 0.0
2018-Jun-12 04:30N 30°13' W 093°15'0 0.0
2018-Jun-12 03:57N 30°13' W 093°15'0 0.0
2018-Jun-12 03:30N 30°13' W 093°15'0 0.0
2018-Jun-12 03:00N 30°13' W 093°15'0 0.0
2018-Jun-12 02:30N 30°13' W 093°15'0 0.0
2018-Jun-12 02:00N 30°13' W 093°15'0 0.0
2018-Jun-12 01:27N 30°13' W 093°15'0 0.0
2018-Jun-12 01:00N 30°13' W 093°15'0 0.0
2018-Jun-12 00:27N 30°13' W 093°15'0 0.0
2018-Jun-12 00:00N 30°13' W 093°15'0 0.0
2018-Jun-11 23:30N 30°13' W 093°15'0 0.0
2018-Jun-11 22:57N 30°13' W 093°15'0 0.0
2018-Jun-11 22:30N 30°13' W 093°15'3 6.5
2018-Jun-11 22:00N 30°11' W 093°18'3 6.9
2018-Jun-11 21:31N 30°08' W 093°20'2 4.0
2018-Jun-11 21:00N 30°06' W 093°18'1 1.3
2018-Jun-11 20:28N 30°06' W 093°17'0 0.0
2018-Jun-11 19:58N 30°06' W 093°17'0 0.0
2018-Jun-11 19:28N 30°06' W 093°17'0 0.0
2018-Jun-11 18:58N 30°06' W 093°17'0 0.0
2018-Jun-11 18:28N 30°06' W 093°17'0 0.0
2018-Jun-11 17:58N 30°06' W 093°17'0 0.0
2018-Jun-11 17:28N 30°06' W 093°17'0 0.0
2018-Jun-11 16:58N 30°06' W 093°17'0 0.0
2018-Jun-11 16:28N 30°06' W 093°17'0 0.0
2018-Jun-11 15:58N 30°06' W 093°17'0 0.0
2018-Jun-11 15:28N 30°06' W 093°17'0 0.0
2018-Jun-11 14:58N 30°06' W 093°17'0 0.0
2018-Jun-11 14:28N 30°06' W 093°17'0 0.0
2018-Jun-11 13:58N 30°06' W 093°17'0 0.0
2018-Jun-11 13:28N 30°06' W 093°17'0 0.0
2018-Jun-11 13:01N 30°06' W 093°17'0 0.0
2018-Jun-11 12:28N 30°06' W 093°17'0 0.0
2018-Jun-11 12:01N 30°06' W 093°17'0 0.0
2018-Jun-11 11:31N 30°06' W 093°17'0 0.0
2018-Jun-11 11:00N 30°06' W 093°17'0 0.0
2018-Jun-11 10:30N 30°06' W 093°17'0 0.0
2018-Jun-11 10:00N 30°06' W 093°17'  

Dump ship's entire track history